Victoria, Illinois
Current Conditions -  °F | °C
As of 8:35 AM on Monday 22 Dec 2014 (Local Time) from KGBG Reporting Station
Overcast Overcast  
Wind Chill: 28°   Ceiling: 4000
Heat Index: 36°   Visibility: 7mi
Dew Point: 32°   Wind: 12mph
Humidity: 87%   Direction: 100°E
Pressure: 29.76"   Gusts: NA
Location:  41.03°N, 90.1°W
Report Text: KGBG 221435Z AUTO 10010KT 7SM OVC040 02/00 A2976 RMK AO2 T00200000
Loading
Personal Weather Stations






























Interactive Weather Map New forecast layout! Learn more

10-Day Weather Forecast

Advertisements
Track Severe Weather on mobile